createdAt,value
2022-10-30T00:01:15.115Z,-79
2022-10-30T00:03:42.281Z,-78
2022-10-30T00:06:09.489Z,-80
2022-10-30T00:08:37.060Z,-78
2022-10-30T00:11:13.626Z,-78
2022-10-30T00:13:44.145Z,-79
2022-10-30T00:16:11.601Z,-79
2022-10-30T00:18:40.093Z,-78
2022-10-30T00:21:11.724Z,-78
2022-10-30T00:23:39.745Z,-78
2022-10-30T00:26:08.077Z,-79
2022-10-30T00:28:35.575Z,-79
2022-10-30T00:31:05.384Z,-79
2022-10-30T00:33:32.952Z,-78
2022-10-30T00:36:00.924Z,-78
2022-10-30T00:38:28.221Z,-78
2022-10-30T00:40:55.420Z,-80
2022-10-30T00:43:30.643Z,-78
2022-10-30T00:46:06.383Z,-80
2022-10-30T00:48:34.865Z,-80
2022-10-30T00:51:06.849Z,-79
2022-10-30T00:53:34.397Z,-79
2022-10-30T00:56:06.767Z,-78
2022-10-30T00:58:44.950Z,-78
2022-10-30T01:01:20.133Z,-78
2022-10-30T01:03:50.497Z,-81
2022-10-30T01:06:18.674Z,-78
2022-10-30T01:08:48.021Z,-78
2022-10-30T01:11:15.403Z,-79
2022-10-30T01:13:47.054Z,-80
2022-10-30T01:16:40.366Z,-77
2022-10-30T01:19:33.655Z,-77
2022-10-30T01:22:18.792Z,-78
2022-10-30T01:25:13.176Z,-79
2022-10-30T01:28:01.414Z,-78
2022-10-30T01:31:10.743Z,-78
2022-10-30T01:34:28.105Z,-79
2022-10-30T01:37:14.464Z,-79
2022-10-30T01:39:42.092Z,-78
2022-10-30T01:42:52.052Z,-78
2022-10-30T01:45:43.788Z,-78
2022-10-30T01:48:22.810Z,-79
2022-10-30T01:51:21.876Z,-78
2022-10-30T01:54:12.464Z,-77
2022-10-30T01:56:55.225Z,-79
2022-10-30T01:59:51.140Z,-78
2022-10-30T02:02:18.956Z,-80
2022-10-30T02:04:46.475Z,-80
2022-10-30T02:07:13.862Z,-78
2022-10-30T02:09:42.104Z,-77
2022-10-30T02:12:10.487Z,-79
2022-10-30T02:14:45.187Z,-77
2022-10-30T02:17:13.379Z,-78
2022-10-30T02:19:40.532Z,-78
2022-10-30T02:22:07.961Z,-80
2022-10-30T02:24:35.139Z,-78
2022-10-30T02:27:02.391Z,-78
2022-10-30T02:29:29.893Z,-78
2022-10-30T02:31:57.091Z,-79
2022-10-30T02:34:24.256Z,-78
2022-10-30T02:36:51.499Z,-77
2022-10-30T02:39:18.752Z,-78
2022-10-30T02:41:46.037Z,-79
2022-10-30T02:44:13.412Z,-77
2022-10-30T02:46:40.727Z,-77
2022-10-30T02:49:08.040Z,-77
2022-10-30T02:51:35.210Z,-77
2022-10-30T02:54:02.363Z,-77
2022-10-30T02:56:29.754Z,-78
2022-10-30T02:58:57.378Z,-78
2022-10-30T03:01:27.872Z,-78
2022-10-30T03:03:55.388Z,-77
2022-10-30T03:06:22.748Z,-80
2022-10-30T03:08:50.040Z,-81
2022-10-30T03:11:19.799Z,-78
2022-10-30T03:13:49.199Z,-80
2022-10-30T03:16:21.435Z,-80
2022-10-30T03:18:49.081Z,-79
2022-10-30T03:21:20.177Z,-79
2022-10-30T03:23:47.733Z,-78
2022-10-30T03:26:15.203Z,-78
2022-10-30T03:28:42.780Z,-80
2022-10-30T03:31:13.705Z,-80
2022-10-30T03:33:41.827Z,-79
2022-10-30T03:36:12.456Z,-80
2022-10-30T03:38:40.482Z,-80
2022-10-30T03:41:07.799Z,-80
2022-10-30T03:43:35.271Z,-78
2022-10-30T03:46:02.825Z,-78
2022-10-30T03:48:30.691Z,-78
2022-10-30T03:50:59.956Z,-79
2022-10-30T03:53:28.894Z,-78
2022-10-30T03:56:01.698Z,-79
2022-10-30T03:58:30.288Z,-77
2022-10-30T04:01:08.371Z,-79
2022-10-30T04:03:36.126Z,-78
2022-10-30T04:06:03.973Z,-78
2022-10-30T04:08:31.541Z,-79
2022-10-30T04:10:59.083Z,-79
2022-10-30T04:13:26.739Z,-77
2022-10-30T04:15:57.916Z,-79
2022-10-30T04:18:26.481Z,-80
2022-10-30T04:20:54.319Z,-79
2022-10-30T04:23:23.009Z,-80
2022-10-30T04:25:50.549Z,-79
2022-10-30T04:28:18.040Z,-80
2022-10-30T04:30:45.719Z,-79
2022-10-30T04:33:14.071Z,-80
2022-10-30T04:35:42.597Z,-79
2022-10-30T04:38:15.481Z,-80
2022-10-30T04:40:44.317Z,-79
2022-10-30T04:43:12.831Z,-80
2022-10-30T04:45:41.201Z,-79
2022-10-30T04:48:19.357Z,-79
2022-10-30T04:50:46.892Z,-79
2022-10-30T04:53:19.212Z,-78
2022-10-30T04:55:47.013Z,-78
2022-10-30T04:58:14.962Z,-78
2022-10-30T05:00:42.677Z,-78
2022-10-30T05:03:18.179Z,-79
2022-10-30T05:05:46.468Z,-79
2022-10-30T05:08:13.964Z,-79
2022-10-30T05:10:41.658Z,-79
2022-10-30T05:13:11.292Z,-80
2022-10-30T05:15:39.132Z,-81
2022-10-30T05:18:06.761Z,-78
2022-10-30T05:20:34.401Z,-79
2022-10-30T05:23:02.121Z,-77
2022-10-30T05:25:29.986Z,-78
2022-10-30T05:28:05.955Z,-80
2022-10-30T05:30:34.870Z,-79
2022-10-30T05:33:05.966Z,-79
2022-10-30T05:35:34.951Z,-78
2022-10-30T05:38:05.712Z,-79
2022-10-30T05:40:34.623Z,-80
2022-10-30T05:43:02.543Z,-79
2022-10-30T05:45:30.285Z,-78
2022-10-30T05:48:00.255Z,-80
2022-10-30T05:50:29.764Z,-80
2022-10-30T05:53:05.424Z,-81
2022-10-30T05:55:33.698Z,-81
2022-10-30T05:58:04.220Z,-79
2022-10-30T06:00:34.671Z,-80
2022-10-30T06:03:04.464Z,-80
2022-10-30T06:05:39.143Z,-81
2022-10-30T06:08:08.082Z,-79
2022-10-30T06:10:35.926Z,-81
2022-10-30T06:13:05.645Z,-79
2022-10-30T06:15:33.848Z,-78
2022-10-30T06:18:01.828Z,-78
2022-10-30T06:20:30.780Z,-80
2022-10-30T06:23:02.475Z,-79
2022-10-30T06:25:39.365Z,-79
2022-10-30T06:28:09.670Z,-78
2022-10-30T06:30:37.391Z,-77
2022-10-30T06:33:05.940Z,-78
2022-10-30T06:35:33.623Z,-79
2022-10-30T06:38:01.170Z,-78
2022-10-30T06:40:29.915Z,-80
2022-10-30T06:42:58.554Z,-76
2022-10-30T06:45:26.464Z,-78
2022-10-30T06:47:54.080Z,-79
2022-10-30T06:50:22.847Z,-79
2022-10-30T06:52:50.397Z,-79
2022-10-30T06:55:18.360Z,-79
2022-10-30T06:57:46.225Z,-82
2022-10-30T07:00:17.193Z,-78
2022-10-30T07:02:44.775Z,-80
2022-10-30T07:05:12.254Z,-79
2022-10-30T07:07:39.794Z,-80
2022-10-30T07:10:07.784Z,-78
2022-10-30T07:12:35.386Z,-79
2022-10-30T07:15:03.049Z,-80
2022-10-30T07:17:30.642Z,-81
2022-10-30T07:19:58.673Z,-80
2022-10-30T07:22:26.254Z,-80
2022-10-30T07:24:53.790Z,-80
2022-10-30T07:27:21.284Z,-78
2022-10-30T07:29:48.761Z,-80
2022-10-30T07:32:16.455Z,-80
2022-10-30T07:34:44.129Z,-79
2022-10-30T07:37:11.624Z,-79
2022-10-30T07:39:39.078Z,-79
2022-10-30T07:42:06.658Z,-79
2022-10-30T07:44:34.360Z,-79
2022-10-30T07:47:01.907Z,-78
2022-10-30T07:49:29.447Z,-80
2022-10-30T07:51:56.993Z,-79
2022-10-30T07:54:24.500Z,-80
2022-10-30T07:56:52.084Z,-76
2022-10-30T07:59:19.533Z,-80
2022-10-30T08:01:47.109Z,-82
2022-10-30T08:04:14.640Z,-79
2022-10-30T08:06:42.364Z,-81
2022-10-30T08:09:10.209Z,-79
2022-10-30T08:11:37.734Z,-79
2022-10-30T08:14:05.273Z,-80
2022-10-30T08:16:32.774Z,-79
2022-10-30T08:19:00.407Z,-80
2022-10-30T08:21:28.076Z,-80
2022-10-30T08:23:55.672Z,-78
2022-10-30T08:26:23.395Z,-80
2022-10-30T08:28:50.874Z,-81
2022-10-30T08:31:18.565Z,-79
2022-10-30T08:33:46.261Z,-80
2022-10-30T08:36:13.853Z,-79
2022-10-30T08:38:41.412Z,-80
2022-10-30T08:41:08.942Z,-78
2022-10-30T08:43:36.458Z,-79
2022-10-30T08:46:04.025Z,-80
2022-10-30T08:48:31.650Z,-80
2022-10-30T08:50:59.822Z,-79
2022-10-30T08:53:27.274Z,-80
2022-10-30T08:55:54.795Z,-80
2022-10-30T08:58:22.265Z,-79
2022-10-30T09:00:49.851Z,-79
2022-10-30T09:03:17.313Z,-79
2022-10-30T09:05:44.774Z,-78
2022-10-30T09:08:12.248Z,-79
2022-10-30T09:10:40.128Z,-80
2022-10-30T09:13:07.521Z,-78
2022-10-30T09:15:34.748Z,-79
2022-10-30T09:18:04.550Z,-80
2022-10-30T09:20:32.284Z,-79
2022-10-30T09:22:59.669Z,-79
2022-10-30T09:25:27.287Z,-78
2022-10-30T09:27:54.526Z,-80
2022-10-30T09:30:22.422Z,-79
2022-10-30T09:33:01.488Z,-79
2022-10-30T09:35:29.768Z,-79
2022-10-30T09:37:57.943Z,-79
2022-10-30T09:41:24.432Z,-80
2022-10-30T09:44:21.511Z,-78
2022-10-30T09:47:23.323Z,-79
2022-10-30T09:50:11.926Z,-79
2022-10-30T09:53:01.392Z,-79
2022-10-30T09:56:23.735Z,-78
2022-10-30T09:59:16.633Z,-80
2022-10-30T10:02:11.070Z,-79
2022-10-30T10:04:51.862Z,-80
2022-10-30T10:07:35.642Z,-80
2022-10-30T10:10:36.783Z,-77
2022-10-30T10:13:16.280Z,-76
2022-10-30T10:15:57.399Z,-78
2022-10-30T10:21:33.202Z,-78
2022-10-30T10:24:04.346Z,-78
2022-10-30T10:26:45.472Z,-81
2022-10-30T10:29:41.490Z,-78
2022-10-30T10:32:52.310Z,-79
2022-10-30T10:36:06.122Z,-79
2022-10-30T10:39:00.185Z,-79
2022-10-30T10:42:03.794Z,-80
2022-10-30T10:45:17.314Z,-78
2022-10-30T10:47:53.202Z,-79
2022-10-30T10:50:36.520Z,-78
2022-10-30T10:53:29.369Z,-79
2022-10-30T10:56:00.934Z,-78
2022-10-30T10:59:00.854Z,-79
2022-10-30T11:01:48.835Z,-79
2022-10-30T11:04:45.492Z,-80
2022-10-30T11:07:24.145Z,-79
2022-10-30T11:09:58.371Z,-77
2022-10-30T11:12:37.069Z,-77
2022-10-30T11:15:24.136Z,-79
2022-10-30T11:18:10.312Z,-78
2022-10-30T11:21:18.207Z,-78
2022-10-30T11:23:48.380Z,-77
2022-10-30T11:26:18.528Z,-78
2022-10-30T11:28:56.286Z,-79
2022-10-30T11:31:29.564Z,-77
2022-10-30T11:33:57.072Z,-77
2022-10-30T11:36:26.417Z,-80
2022-10-30T11:39:09.082Z,-76
2022-10-30T11:41:36.632Z,-78
2022-10-30T11:44:06.540Z,-78
2022-10-30T11:46:36.486Z,-77
2022-10-30T11:49:03.849Z,-79
2022-10-30T11:51:39.488Z,-80
2022-10-30T11:54:16.007Z,-79
2022-10-30T11:56:49.866Z,-77
2022-10-30T11:59:23.828Z,-77
2022-10-30T12:02:19.337Z,-77
2022-10-30T12:04:46.813Z,-79
2022-10-30T12:07:23.107Z,-77
2022-10-30T12:09:50.908Z,-77
2022-10-30T12:12:38.886Z,-78
2022-10-30T12:15:15.257Z,-77
2022-10-30T12:18:00.329Z,-78
2022-10-30T12:20:29.269Z,-77
2022-10-30T12:22:57.959Z,-79
2022-10-30T12:25:31.012Z,-77
2022-10-30T12:28:08.197Z,-78
2022-10-30T12:30:49.770Z,-77
2022-10-30T12:33:28.883Z,-79
2022-10-30T12:36:18.185Z,-79
2022-10-30T12:38:57.510Z,-77
2022-10-30T12:41:59.570Z,-78
2022-10-30T12:44:51.864Z,-76
2022-10-30T12:47:29.042Z,-77
2022-10-30T12:50:06.902Z,-77
2022-10-30T12:52:46.630Z,-79
2022-10-30T12:55:37.022Z,-79
2022-10-30T12:58:39.998Z,-79
2022-10-30T13:01:25.753Z,-78
2022-10-30T13:04:15.719Z,-74
2022-10-30T13:07:03.290Z,-80
2022-10-30T13:10:20.257Z,-77
2022-10-30T13:12:52.723Z,-78
2022-10-30T13:15:31.014Z,-80
2022-10-30T13:18:16.378Z,-78
2022-10-30T13:20:57.529Z,-79
2022-10-30T13:23:35.681Z,-78
2022-10-30T13:26:31.651Z,-79
2022-10-30T13:29:23.390Z,-78
2022-10-30T13:32:34.158Z,-78
2022-10-30T13:35:44.306Z,-78
2022-10-30T13:38:45.171Z,-79
2022-10-30T13:41:31.670Z,-79
2022-10-30T13:44:34.968Z,-79
2022-10-30T13:47:32.588Z,-78
2022-10-30T13:50:51.471Z,-78
2022-10-30T13:53:28.097Z,-77
2022-10-30T13:55:57.382Z,-78
2022-10-30T13:58:44.182Z,-83
2022-10-30T14:01:46.028Z,-77
2022-10-30T14:04:32.877Z,-80
2022-10-30T14:07:38.376Z,-79
2022-10-30T14:10:20.817Z,-78
2022-10-30T14:12:57.310Z,-78
2022-10-30T14:15:31.303Z,-78
2022-10-30T14:18:13.717Z,-80
2022-10-30T14:20:52.651Z,-78
2022-10-30T14:23:33.121Z,-78
2022-10-30T14:26:03.570Z,-79
2022-10-30T14:28:41.796Z,-78
2022-10-30T14:31:18.609Z,-77
2022-10-30T14:33:51.597Z,-78
2022-10-30T14:36:23.169Z,-78
2022-10-30T14:39:09.886Z,-78
2022-10-30T14:42:19.740Z,-78
2022-10-30T14:45:22.388Z,-78
2022-10-30T14:48:34.882Z,-79
2022-10-30T14:51:33.640Z,-79
2022-10-30T14:54:06.290Z,-78
2022-10-30T14:56:48.550Z,-83
2022-10-30T14:59:15.594Z,-82
2022-10-30T15:01:51.555Z,-83
2022-10-30T15:04:40.732Z,-82
2022-10-30T15:07:31.778Z,-81
2022-10-30T15:10:16.319Z,-81
2022-10-30T15:13:21.434Z,-81
2022-10-30T15:16:07.915Z,-82
2022-10-30T15:18:35.280Z,-82
2022-10-30T15:21:07.192Z,-81
2022-10-30T15:23:37.552Z,-82
2022-10-30T15:26:20.058Z,-80
2022-10-30T15:28:51.725Z,-82
2022-10-30T15:31:24.074Z,-82
2022-10-30T15:33:52.879Z,-82
2022-10-30T15:36:40.424Z,-80
2022-10-30T15:39:18.835Z,-82
2022-10-30T15:42:01.945Z,-82
2022-10-30T15:44:41.457Z,-82
2022-10-30T15:47:19.875Z,-80
2022-10-30T15:49:54.096Z,-86
2022-10-30T15:52:28.659Z,-88
2022-10-30T15:55:07.826Z,-85
2022-10-30T15:58:02.874Z,-86
2022-10-30T16:00:36.104Z,-86
2022-10-30T16:03:18.131Z,-86
2022-10-30T16:05:46.029Z,-87
2022-10-30T16:08:21.008Z,-85
2022-10-30T16:10:52.611Z,-86
2022-10-30T16:13:29.457Z,-87
2022-10-30T16:15:57.278Z,-87
2022-10-30T16:18:36.426Z,-85
2022-10-30T16:21:09.488Z,-85
2022-10-30T16:23:47.394Z,-85
2022-10-30T16:26:24.588Z,-78
2022-10-30T16:28:52.085Z,-89
2022-10-30T16:31:20.494Z,-90
2022-10-30T16:33:48.816Z,-88
2022-10-30T16:36:18.480Z,-89
2022-10-30T16:38:49.657Z,-89
2022-10-30T16:41:24.167Z,-90
2022-10-30T16:44:17.319Z,-88
2022-10-30T16:46:57.315Z,-89
2022-10-30T16:49:30.585Z,-87
2022-10-30T16:52:04.217Z,-92
2022-10-30T16:54:49.020Z,-90
2022-10-30T16:57:30.209Z,-89
2022-10-30T17:00:00.859Z,-89
2022-10-30T17:02:33.857Z,-91
2022-10-30T17:05:19.576Z,-88
2022-10-30T17:08:03.863Z,-89
2022-10-30T17:10:55.043Z,-89
2022-10-30T17:13:39.366Z,-88
2022-10-30T17:16:26.554Z,-89
2022-10-30T17:18:59.980Z,-90
2022-10-30T17:21:41.108Z,-90
2022-10-30T17:24:41.944Z,-90
2022-10-30T17:27:50.526Z,-90
2022-10-30T17:30:34.057Z,-89
2022-10-30T17:33:37.560Z,-90
2022-10-30T17:36:06.674Z,-90
2022-10-30T17:38:34.083Z,-91
2022-10-30T17:41:02.476Z,-85
2022-10-30T17:43:52.039Z,-89
2022-10-30T17:46:20.574Z,-90
2022-10-30T17:48:48.642Z,-89
2022-10-30T17:51:18.225Z,-89
2022-10-30T17:53:50.156Z,-87
2022-10-30T17:56:31.421Z,-90
2022-10-30T17:58:58.654Z,-79
2022-10-30T18:01:27.564Z,-81
2022-10-30T18:03:56.239Z,-89
2022-10-30T18:06:27.324Z,-89
2022-10-30T18:08:55.281Z,-89
2022-10-30T18:11:24.871Z,-88
2022-10-30T18:13:55.588Z,-88
2022-10-30T18:16:23.339Z,-89
2022-10-30T18:18:51.529Z,-90
2022-10-30T18:21:22.710Z,-91
2022-10-30T18:23:53.115Z,-88
2022-10-30T18:26:26.991Z,-89
2022-10-30T18:28:54.974Z,-87
2022-10-30T18:31:25.823Z,-89
2022-10-30T18:33:53.234Z,-86
2022-10-30T18:36:24.623Z,-82
2022-10-30T18:38:52.787Z,-81
2022-10-30T18:41:36.738Z,-84
2022-10-30T18:44:04.721Z,-83
2022-10-30T18:46:33.896Z,-86
2022-10-30T18:49:01.493Z,-85
2022-10-30T18:51:29.542Z,-88
2022-10-30T18:53:57.287Z,-88
2022-10-30T18:56:28.001Z,-87
2022-10-30T18:59:00.753Z,-88
2022-10-30T19:01:31.708Z,-89
2022-10-30T19:03:59.286Z,-88
2022-10-30T19:06:26.917Z,-88
2022-10-30T19:08:54.315Z,-87
2022-10-30T19:11:24.881Z,-87
2022-10-30T19:13:54.525Z,-87
2022-10-30T19:16:22.720Z,-85
2022-10-30T19:18:49.923Z,-86
2022-10-30T19:21:19.891Z,-88
2022-10-30T19:23:50.503Z,-89
2022-10-30T19:26:18.033Z,-90
2022-10-30T19:28:46.720Z,-90
2022-10-30T19:31:18.203Z,-89
2022-10-30T19:33:52.958Z,-88
2022-10-30T19:36:34.951Z,-87
2022-10-30T19:39:14.173Z,-88
2022-10-30T19:41:41.641Z,-87
2022-10-30T19:44:09.365Z,-89
2022-10-30T19:46:37.539Z,-88
2022-10-30T19:49:17.979Z,-89
2022-10-30T19:51:45.247Z,-88
2022-10-30T19:54:12.584Z,-88
2022-10-30T19:56:39.733Z,-89
2022-10-30T19:59:13.403Z,-87
2022-10-30T20:01:40.769Z,-87
2022-10-30T20:04:08.011Z,-89
2022-10-30T20:06:35.175Z,-88
2022-10-30T20:09:02.310Z,-80
2022-10-30T20:11:29.713Z,-89
2022-10-30T20:13:56.841Z,-83
2022-10-30T20:16:24.266Z,-88
2022-10-30T20:18:51.490Z,-88
2022-10-30T20:21:20.276Z,-89
2022-10-30T20:23:47.544Z,-87
2022-10-30T20:26:25.234Z,-88
2022-10-30T20:28:53.502Z,-88
2022-10-30T20:31:21.594Z,-89
2022-10-30T20:33:48.846Z,-89
2022-10-30T20:36:16.043Z,-90
2022-10-30T20:38:43.402Z,-89
2022-10-30T20:41:25.541Z,-89
2022-10-30T20:43:52.811Z,-87
2022-10-30T20:46:21.550Z,-88
2022-10-30T20:48:49.179Z,-88
2022-10-30T20:51:16.586Z,-88
2022-10-30T20:53:43.825Z,-88
2022-10-30T20:56:11.082Z,-88
2022-10-30T20:58:38.508Z,-89
2022-10-30T21:01:06.156Z,-88
2022-10-30T21:03:33.484Z,-86
2022-10-30T21:06:02.395Z,-88
2022-10-30T21:08:31.561Z,-87
2022-10-30T21:11:02.373Z,-88
2022-10-30T21:13:29.946Z,-89
2022-10-30T21:16:02.652Z,-88
2022-10-30T21:18:30.358Z,-88
2022-10-30T21:21:08.930Z,-87
2022-10-30T21:23:36.151Z,-89
2022-10-30T21:26:08.009Z,-87
2022-10-30T21:28:35.210Z,-87
2022-10-30T21:31:10.979Z,-88
2022-10-30T21:33:38.912Z,-88
2022-10-30T21:36:15.357Z,-88
2022-10-30T21:38:44.256Z,-89
2022-10-30T21:41:17.123Z,-88
2022-10-30T21:43:50.179Z,-88
2022-10-30T21:46:17.966Z,-89
2022-10-30T21:48:45.093Z,-89
2022-10-30T21:51:25.102Z,-88
2022-10-30T21:53:54.118Z,-89
2022-10-30T21:56:25.913Z,-89
2022-10-30T21:58:55.518Z,-89
2022-10-30T22:01:29.211Z,-90
2022-10-30T22:04:00.368Z,-89
2022-10-30T22:06:29.092Z,-89
2022-10-30T22:08:57.651Z,-88
2022-10-30T22:11:28.545Z,-89
2022-10-30T22:13:59.188Z,-88
2022-10-30T22:16:28.329Z,-88
2022-10-30T22:18:57.016Z,-87
2022-10-30T22:21:25.151Z,-87
2022-10-30T22:23:52.353Z,-89
2022-10-30T22:26:22.541Z,-88
2022-10-30T22:28:54.619Z,-89
2022-10-30T22:31:24.890Z,-88
2022-10-30T22:33:53.076Z,-88
2022-10-30T22:36:25.425Z,-88
2022-10-30T22:39:00.379Z,-88
2022-10-30T22:41:34.405Z,-88
2022-10-30T22:44:06.555Z,-88
2022-10-30T22:46:33.960Z,-84
2022-10-30T22:49:01.123Z,-88
2022-10-30T22:51:31.289Z,-88
2022-10-30T22:54:04.573Z,-88
2022-10-30T22:56:34.917Z,-89
2022-10-30T22:59:05.943Z,-88
2022-10-30T23:01:36.154Z,-85
2022-10-30T23:04:05.559Z,-86
2022-10-30T23:06:35.231Z,-80
2022-10-30T23:09:08.015Z,-88
2022-10-30T23:11:35.778Z,-88
2022-10-30T23:14:03.467Z,-82
2022-10-30T23:16:30.943Z,-88
2022-10-30T23:19:00.637Z,-88
2022-10-30T23:21:30.987Z,-88
2022-10-30T23:23:59.261Z,-85
2022-10-30T23:26:33.319Z,-87
2022-10-30T23:29:01.899Z,-88
2022-10-30T23:31:39.429Z,-88
2022-10-30T23:34:10.916Z,-89
2022-10-30T23:36:38.758Z,-89
2022-10-30T23:39:16.600Z,-89
2022-10-30T23:41:44.708Z,-88
2022-10-30T23:44:15.520Z,-88
2022-10-30T23:46:42.767Z,-88
2022-10-30T23:49:09.896Z,-88
2022-10-30T23:51:37.215Z,-87
2022-10-30T23:54:05.453Z,-89
2022-10-30T23:56:32.652Z,-81
2022-10-30T23:59:00.798Z,-88
